createdAt,value
2023-03-06T00:02:10.441Z,100497.56
2023-03-06T00:04:42.134Z,100506.59
2023-03-06T00:07:12.305Z,100497.66
2023-03-06T00:09:59.034Z,100495.81
2023-03-06T00:12:29.388Z,100488.78
2023-03-06T00:14:57.947Z,100487.84
2023-03-06T00:17:30.525Z,100485.50
2023-03-06T00:19:59.329Z,100482.88
2023-03-06T00:22:28.429Z,100477.56
2023-03-06T00:24:56.674Z,100480.94
2023-03-06T00:27:26.595Z,100482.22
2023-03-06T00:29:58.779Z,100484.78
2023-03-06T00:32:29.705Z,100487.38
2023-03-06T00:34:58.783Z,100479.56
2023-03-06T00:37:29.992Z,100475.41
2023-03-06T00:39:58.333Z,100476.06
2023-03-06T00:42:27.017Z,100476.81
2023-03-06T00:44:55.827Z,100485.47
2023-03-06T00:47:24.523Z,100480.19
2023-03-06T00:49:57.484Z,100485.47
2023-03-06T00:52:26.147Z,100486.38
2023-03-06T00:55:01.377Z,100481.16
2023-03-06T00:57:35.522Z,100487.38
2023-03-06T01:00:06.480Z,100481.03
2023-03-06T01:02:35.269Z,100481.47
2023-03-06T01:05:19.711Z,100490.34
2023-03-06T01:07:52.283Z,100483.38
2023-03-06T01:10:27.748Z,100479.94
2023-03-06T01:13:04.208Z,100484.19
2023-03-06T01:15:32.856Z,100473.00
2023-03-06T01:18:05.844Z,100478.25
2023-03-06T01:20:37.440Z,100474.88
2023-03-06T01:23:08.988Z,100473.06
2023-03-06T01:25:43.411Z,100467.50
2023-03-06T01:28:11.889Z,100461.19
2023-03-06T01:30:43.063Z,100458.28
2023-03-06T01:33:11.803Z,100464.50
2023-03-06T01:35:42.044Z,100469.91
2023-03-06T01:38:11.120Z,100467.13
2023-03-06T01:40:40.309Z,100458.41
2023-03-06T01:43:15.451Z,100463.25
2023-03-06T01:46:20.607Z,100457.25
2023-03-06T01:48:50.216Z,100450.13
2023-03-06T01:51:22.804Z,100449.75
2023-03-06T01:53:55.190Z,100449.81
2023-03-06T01:56:25.735Z,100453.56
2023-03-06T01:58:55.901Z,100449.81
2023-03-06T02:01:31.645Z,100449.81
2023-03-06T02:04:09.763Z,100450.78
2023-03-06T02:06:43.904Z,100446.81
2023-03-06T02:09:14.822Z,100436.28
2023-03-06T02:11:44.450Z,100439.88
2023-03-06T02:14:18.345Z,100437.56
2023-03-06T02:16:47.845Z,100433.88
2023-03-06T02:19:35.912Z,100440.75
2023-03-06T02:22:10.170Z,100437.25
2023-03-06T02:24:47.510Z,100437.59
2023-03-06T02:27:18.730Z,100441.09
2023-03-06T02:29:50.493Z,100434.13
2023-03-06T02:32:19.912Z,100432.66
2023-03-06T02:35:00.301Z,100427.56
2023-03-06T02:37:32.974Z,100423.06
2023-03-06T02:40:15.441Z,100422.19
2023-03-06T02:42:56.840Z,100411.56
2023-03-06T02:45:33.956Z,100420.38
2023-03-06T02:48:02.998Z,100422.88
2023-03-06T02:50:50.863Z,100418.06
2023-03-06T02:53:25.703Z,100413.50
2023-03-06T02:55:57.602Z,100409.75
2023-03-06T02:58:31.142Z,100402.63
2023-03-06T03:01:13.931Z,100388.91
2023-03-06T03:03:45.202Z,100387.25
2023-03-06T03:06:14.833Z,100385.25
2023-03-06T03:08:49.235Z,100382.50
2023-03-06T03:11:17.711Z,100375.56
2023-03-06T03:13:50.645Z,100372.63
2023-03-06T03:16:26.154Z,100372.88
2023-03-06T03:18:58.315Z,100382.63
2023-03-06T03:21:27.936Z,100373.81
2023-03-06T03:23:57.018Z,100376.38
2023-03-06T03:26:28.653Z,100373.00
2023-03-06T03:29:00.314Z,100373.59
2023-03-06T03:31:28.888Z,100367.34
2023-03-06T03:33:57.772Z,100361.97
2023-03-06T03:36:27.884Z,100358.41
2023-03-06T03:39:02.061Z,100361.25
2023-03-06T03:41:31.797Z,100356.63
2023-03-06T03:44:05.366Z,100357.41
2023-03-06T03:46:38.090Z,100358.22
2023-03-06T03:49:12.468Z,100351.56
2023-03-06T03:51:41.066Z,100351.56
2023-03-06T03:54:09.289Z,100348.06
2023-03-06T03:56:42.230Z,100346.38
2023-03-06T03:59:13.518Z,100349.09
2023-03-06T04:01:46.249Z,100344.78
2023-03-06T04:04:22.725Z,100351.91
2023-03-06T04:07:01.148Z,100349.16
2023-03-06T04:09:38.316Z,100341.31
2023-03-06T04:12:11.593Z,100344.47
2023-03-06T04:15:11.532Z,100341.84
2023-03-06T04:17:40.838Z,100340.38
2023-03-06T04:20:28.302Z,100345.34
2023-03-06T04:23:07.961Z,100346.13
2023-03-06T04:25:45.564Z,100337.34
2023-03-06T04:28:19.051Z,100335.53
2023-03-06T04:30:56.099Z,100326.09
2023-03-06T04:33:24.567Z,100323.69
2023-03-06T04:35:53.670Z,100320.41
2023-03-06T04:38:28.810Z,100329.19
2023-03-06T04:40:57.576Z,100325.59
2023-03-06T04:43:32.334Z,100324.00
2023-03-06T04:46:06.439Z,100320.47
2023-03-06T04:48:38.976Z,100316.84
2023-03-06T04:51:23.952Z,100309.78
2023-03-06T04:54:00.445Z,100316.78
2023-03-06T04:56:31.699Z,100315.06
2023-03-06T04:59:00.273Z,100313.13
2023-03-06T05:01:37.580Z,100303.59
2023-03-06T05:04:12.463Z,100306.81
2023-03-06T05:06:41.261Z,100309.50
2023-03-06T05:09:12.864Z,100309.34
2023-03-06T05:11:50.458Z,100298.94
2023-03-06T05:14:19.564Z,100302.44
2023-03-06T05:16:51.661Z,100307.81
2023-03-06T05:19:20.816Z,100308.13
2023-03-06T05:21:50.064Z,100301.22
2023-03-06T05:24:24.907Z,100299.47
2023-03-06T05:26:57.478Z,100303.97
2023-03-06T05:29:29.333Z,100302.44
2023-03-06T05:32:03.626Z,100301.59
2023-03-06T05:34:32.977Z,100297.22
2023-03-06T05:37:05.017Z,100304.63
2023-03-06T05:39:33.791Z,100301.41
2023-03-06T05:42:03.061Z,100292.38
2023-03-06T05:44:36.074Z,100295.03
2023-03-06T05:47:09.475Z,100286.44
2023-03-06T05:49:48.295Z,100293.59
2023-03-06T05:52:20.064Z,100289.84
2023-03-06T05:54:54.630Z,100282.16
2023-03-06T05:57:27.139Z,100295.38
2023-03-06T05:59:58.764Z,100289.13
2023-03-06T06:02:30.516Z,100294.47
2023-03-06T06:05:04.900Z,100289.50
2023-03-06T06:07:45.005Z,100292.19
2023-03-06T06:10:18.902Z,100295.78
2023-03-06T06:12:51.132Z,100284.66
2023-03-06T06:15:20.033Z,100295.19
2023-03-06T06:18:52.658Z,100289.34
2023-03-06T06:22:07.479Z,100289.19
2023-03-06T06:28:23.802Z,100288.16
2023-03-06T06:40:31.559Z,100295.88
2023-03-06T06:46:56.187Z,100288.28
2023-03-06T06:55:19.766Z,100294.94
2023-03-06T06:57:54.916Z,100293.22
2023-03-06T07:00:42.338Z,100288.41
2023-03-06T07:03:15.423Z,100295.03
2023-03-06T07:05:44.882Z,100297.13
2023-03-06T07:08:17.374Z,100290.88
2023-03-06T07:10:49.474Z,100290.75
2023-03-06T07:13:18.911Z,100292.03
2023-03-06T07:15:46.841Z,100289.78
2023-03-06T07:18:26.603Z,100290.38
2023-03-06T07:24:10.688Z,100288.28
2023-03-06T07:26:47.118Z,100282.06
2023-03-06T07:29:23.324Z,100290.16
2023-03-06T07:31:55.085Z,100292.53
2023-03-06T07:34:29.414Z,100295.13
2023-03-06T07:37:00.905Z,100297.72
2023-03-06T07:39:34.249Z,100299.25
2023-03-06T07:42:03.535Z,100303.06
2023-03-06T07:44:31.885Z,100301.44
2023-03-06T07:47:09.250Z,100304.53
2023-03-06T07:49:41.234Z,100308.72
2023-03-06T07:52:11.129Z,100305.97
2023-03-06T07:54:44.496Z,100313.94
2023-03-06T07:57:14.635Z,100307.31
2023-03-06T07:59:50.375Z,100314.88
2023-03-06T08:02:20.552Z,100310.47
2023-03-06T08:04:56.258Z,100307.94
2023-03-06T08:07:34.480Z,100301.75
2023-03-06T08:10:12.508Z,100306.09
2023-03-06T08:12:41.050Z,100312.88
2023-03-06T08:15:14.577Z,100308.22
2023-03-06T08:17:44.473Z,100315.69
2023-03-06T08:20:14.654Z,100319.66
2023-03-06T08:22:49.854Z,100324.50
2023-03-06T08:25:19.306Z,100322.41
2023-03-06T08:27:48.518Z,100332.44
2023-03-06T08:30:19.841Z,100327.94
2023-03-06T08:32:47.909Z,100332.91
2023-03-06T08:35:16.270Z,100320.44
2023-03-06T08:37:44.341Z,100335.31
2023-03-06T08:40:14.367Z,100333.13
2023-03-06T08:42:44.367Z,100332.03
2023-03-06T08:45:12.691Z,100333.38
2023-03-06T08:47:40.587Z,100333.53
2023-03-06T08:50:09.254Z,100332.16
2023-03-06T08:52:37.229Z,100329.56
2023-03-06T08:55:05.918Z,100334.88
2023-03-06T08:57:34.342Z,100332.06
2023-03-06T09:00:07.004Z,100336.28
2023-03-06T09:02:35.415Z,100345.31
2023-03-06T09:05:06.192Z,100338.75
2023-03-06T09:07:34.224Z,100343.59
2023-03-06T09:10:02.829Z,100339.59
2023-03-06T09:12:40.396Z,100337.88
2023-03-06T09:15:17.916Z,100338.34
2023-03-06T09:17:46.064Z,100343.81
2023-03-06T09:20:15.037Z,100337.34
2023-03-06T09:22:43.501Z,100343.63
2023-03-06T09:25:13.335Z,100345.13
2023-03-06T09:27:42.010Z,100346.56
2023-03-06T09:30:12.624Z,100342.66
2023-03-06T09:32:41.978Z,100346.06
2023-03-06T09:35:11.547Z,100348.59
2023-03-06T09:37:39.519Z,100348.81
2023-03-06T09:40:08.713Z,100339.47
2023-03-06T09:42:37.062Z,100336.03
2023-03-06T09:45:06.948Z,100347.72
2023-03-06T09:47:53.677Z,100348.13
2023-03-06T09:50:37.410Z,100341.03
2023-03-06T09:53:33.654Z,100341.53
2023-03-06T09:56:04.838Z,100336.94
2023-03-06T09:58:37.774Z,100337.00
2023-03-06T10:01:12.976Z,100329.75
2023-03-06T10:03:50.543Z,100333.75
2023-03-06T10:06:25.303Z,100342.69
2023-03-06T10:08:58.989Z,100330.13
2023-03-06T10:11:33.861Z,100332.63
2023-03-06T10:14:15.152Z,100336.03
2023-03-06T10:16:43.134Z,100330.59
2023-03-06T10:19:16.306Z,100328.22
2023-03-06T10:21:52.264Z,100323.84
2023-03-06T10:24:37.498Z,100322.97
2023-03-06T10:27:15.968Z,100322.53
2023-03-06T10:30:02.688Z,100319.91
2023-03-06T10:32:48.685Z,100315.47
2023-03-06T10:35:21.547Z,100310.91
2023-03-06T10:37:50.315Z,100311.78
2023-03-06T10:40:21.299Z,100302.69
2023-03-06T10:42:53.994Z,100307.56
2023-03-06T10:45:35.210Z,100308.19
2023-03-06T10:48:12.485Z,100302.09
2023-03-06T10:50:44.915Z,100300.22
2023-03-06T10:53:24.952Z,100296.44
2023-03-06T10:55:55.812Z,100300.34
2023-03-06T10:58:27.122Z,100297.41
2023-03-06T11:01:04.332Z,100296.19
2023-03-06T11:03:32.631Z,100289.84
2023-03-06T11:06:13.701Z,100289.25
2023-03-06T11:08:46.136Z,100290.75
2023-03-06T11:11:18.511Z,100284.34
2023-03-06T11:13:58.773Z,100290.63
2023-03-06T11:16:30.547Z,100290.66
2023-03-06T11:19:01.367Z,100294.97
2023-03-06T11:21:33.471Z,100293.69
2023-03-06T11:24:09.795Z,100296.25
2023-03-06T11:26:45.701Z,100280.72
2023-03-06T11:29:25.924Z,100288.41
2023-03-06T11:31:57.174Z,100281.31
2023-03-06T11:34:38.725Z,100273.25
2023-03-06T11:37:14.674Z,100276.66
2023-03-06T11:39:51.792Z,100271.66
2023-03-06T11:42:27.050Z,100274.69
2023-03-06T11:45:17.735Z,100279.09
2023-03-06T11:48:01.048Z,100266.09
2023-03-06T11:50:43.043Z,100261.63
2023-03-06T11:53:18.901Z,100263.63
2023-03-06T11:55:56.741Z,100271.06
2023-03-06T11:59:04.915Z,100270.19
2023-03-06T12:01:38.362Z,100270.59
2023-03-06T12:04:41.294Z,100257.13
2023-03-06T12:07:30.335Z,100253.97
2023-03-06T12:10:10.003Z,100259.13
2023-03-06T12:13:13.437Z,100259.34
2023-03-06T12:15:55.488Z,100259.78
2023-03-06T12:18:44.238Z,100258.06
2023-03-06T12:21:24.125Z,100255.34
2023-03-06T12:24:23.497Z,100255.22
2023-03-06T12:27:12.384Z,100256.00
2023-03-06T12:30:02.144Z,100248.72
2023-03-06T12:32:45.941Z,100250.81
2023-03-06T12:35:33.671Z,100233.75
2023-03-06T12:38:19.493Z,100237.06
2023-03-06T12:41:04.594Z,100242.28
2023-03-06T12:44:00.457Z,100239.09
2023-03-06T12:46:30.659Z,100234.78
2023-03-06T12:49:05.532Z,100227.91
2023-03-06T12:51:35.476Z,100224.50
2023-03-06T12:54:04.579Z,100235.69
2023-03-06T12:56:34.682Z,100237.94
2023-03-06T12:59:04.199Z,100231.97
2023-03-06T13:01:56.470Z,100220.78
2023-03-06T13:04:41.298Z,100223.78
2023-03-06T13:07:28.159Z,100219.28
2023-03-06T13:10:07.754Z,100219.03
2023-03-06T13:12:58.945Z,100213.31
2023-03-06T13:16:08.978Z,100216.38
2023-03-06T13:19:06.074Z,100217.41
2023-03-06T13:22:15.265Z,100216.66
2023-03-06T13:24:55.023Z,100220.50
2023-03-06T13:27:48.156Z,100213.88
2023-03-06T13:30:52.684Z,100213.81
2023-03-06T13:34:01.168Z,100212.00
2023-03-06T13:36:32.433Z,100213.81
2023-03-06T13:39:13.029Z,100215.81
2023-03-06T13:42:02.840Z,100210.25
2023-03-06T13:44:53.380Z,100207.09
2023-03-06T13:48:33.648Z,100212.00
2023-03-06T13:51:06.678Z,100216.53
2023-03-06T13:54:18.238Z,100211.03
2023-03-06T13:57:11.551Z,100207.78
2023-03-06T14:00:08.267Z,100204.00
2023-03-06T14:03:06.586Z,100211.63
2023-03-06T14:05:43.077Z,100207.22
2023-03-06T14:08:16.872Z,100208.78
2023-03-06T14:10:49.469Z,100211.63
2023-03-06T14:13:21.107Z,100210.31
2023-03-06T14:15:50.728Z,100215.88
2023-03-06T14:18:21.939Z,100203.81
2023-03-06T14:20:55.229Z,100201.25
2023-03-06T14:23:35.483Z,100198.16
2023-03-06T14:26:17.645Z,100180.69
2023-03-06T14:28:47.525Z,100183.75
2023-03-06T14:31:20.146Z,100181.47
2023-03-06T14:33:53.715Z,100181.09
2023-03-06T14:36:23.203Z,100185.06
2023-03-06T14:38:58.991Z,100181.53
2023-03-06T14:41:40.962Z,100180.41
2023-03-06T14:44:20.076Z,100175.13
2023-03-06T14:46:49.622Z,100170.78
2023-03-06T14:49:20.123Z,100173.47
2023-03-06T14:51:53.845Z,100168.25
2023-03-06T14:54:27.523Z,100163.78
2023-03-06T14:57:01.633Z,100168.75
2023-03-06T14:59:32.009Z,100160.97
2023-03-06T15:02:04.458Z,100158.41
2023-03-06T15:04:42.348Z,100163.28
2023-03-06T15:07:14.796Z,100159.41
2023-03-06T15:09:51.963Z,100168.69
2023-03-06T15:12:40.251Z,100162.38
2023-03-06T15:15:32.584Z,100160.38
2023-03-06T15:18:01.058Z,100154.00
2023-03-06T15:20:42.678Z,100157.97
2023-03-06T15:23:19.940Z,100155.34
2023-03-06T15:25:55.797Z,100145.53
2023-03-06T15:28:32.900Z,100152.13
2023-03-06T15:31:22.812Z,100155.94
2023-03-06T15:34:17.077Z,100149.50
2023-03-06T15:36:46.780Z,100147.72
2023-03-06T15:39:39.412Z,100141.63
2023-03-06T15:42:19.623Z,100138.13
2023-03-06T15:44:59.514Z,100139.75
2023-03-06T15:47:40.180Z,100138.19
2023-03-06T15:50:32.442Z,100130.63
2023-03-06T15:53:01.093Z,100130.13
2023-03-06T15:55:39.956Z,100129.59
2023-03-06T15:58:23.975Z,100129.19
2023-03-06T16:01:01.088Z,100134.69
2023-03-06T16:03:33.781Z,100127.94
2023-03-06T16:06:03.109Z,100118.94
2023-03-06T16:08:33.275Z,100121.38
2023-03-06T16:11:07.748Z,100129.00
2023-03-06T16:13:37.240Z,100128.94
2023-03-06T16:16:06.102Z,100126.22
2023-03-06T16:18:34.145Z,100117.88
2023-03-06T16:21:02.165Z,100117.97
2023-03-06T16:23:30.198Z,100124.03
2023-03-06T16:25:58.109Z,100122.59
2023-03-06T16:28:27.367Z,100122.31
2023-03-06T16:30:56.770Z,100119.66
2023-03-06T16:33:25.709Z,100119.22
2023-03-06T16:35:53.765Z,100121.06
2023-03-06T16:38:21.753Z,100122.06
2023-03-06T16:40:49.663Z,100114.31
2023-03-06T16:43:20.340Z,100114.31
2023-03-06T16:45:50.351Z,100115.31
2023-03-06T16:48:23.199Z,100115.94
2023-03-06T16:50:51.793Z,100114.06
2023-03-06T16:53:20.006Z,100114.00
2023-03-06T16:55:48.045Z,100107.56
2023-03-06T16:58:21.027Z,100102.47
2023-03-06T17:00:52.790Z,100107.81
2023-03-06T17:03:22.241Z,100107.66
2023-03-06T17:05:50.605Z,100093.44
2023-03-06T17:08:20.855Z,100102.16
2023-03-06T17:10:50.250Z,100101.41
2023-03-06T17:13:21.071Z,100099.97
2023-03-06T17:15:57.088Z,100098.47
2023-03-06T17:18:28.172Z,100106.03
2023-03-06T17:20:58.454Z,100102.13
2023-03-06T17:23:28.801Z,100102.13
2023-03-06T17:26:05.919Z,100105.72
2023-03-06T17:28:34.323Z,100105.78
2023-03-06T17:31:03.103Z,100107.94
2023-03-06T17:33:32.867Z,100096.00
2023-03-06T17:36:02.127Z,100097.34
2023-03-06T17:38:30.275Z,100108.03
2023-03-06T17:41:03.757Z,100110.91
2023-03-06T17:43:32.004Z,100097.69
2023-03-06T17:46:04.327Z,100100.59
2023-03-06T17:48:35.575Z,100093.09
2023-03-06T17:51:06.827Z,100088.72
2023-03-06T17:53:37.907Z,100084.03
2023-03-06T17:56:11.020Z,100082.81
2023-03-06T17:58:47.797Z,100089.84
2023-03-06T18:01:20.874Z,100084.69
2023-03-06T18:03:51.931Z,100087.50
2023-03-06T18:06:25.513Z,100086.38
2023-03-06T18:08:54.321Z,100090.84
2023-03-06T18:11:29.692Z,100089.06
2023-03-06T18:13:59.617Z,100084.78
2023-03-06T18:16:28.483Z,100080.06
2023-03-06T18:18:58.614Z,100073.50
2023-03-06T18:21:27.123Z,100069.25
2023-03-06T18:23:55.466Z,100071.63
2023-03-06T18:26:25.618Z,100067.19
2023-03-06T18:28:55.513Z,100060.25
2023-03-06T18:31:25.781Z,100057.53
2023-03-06T18:33:55.515Z,100049.69
2023-03-06T18:36:27.567Z,100046.94
2023-03-06T18:38:55.980Z,100043.69
2023-03-06T18:41:24.624Z,100040.81
2023-03-06T18:43:53.509Z,100032.34
2023-03-06T18:46:23.371Z,100029.88
2023-03-06T18:48:51.648Z,100021.06
2023-03-06T18:51:20.465Z,100017.94
2023-03-06T18:53:50.447Z,100019.94
2023-03-06T18:56:22.003Z,100017.97
2023-03-06T18:58:50.549Z,100009.38
2023-03-06T19:01:22.550Z,100005.47
2023-03-06T19:03:53.172Z,100007.16
2023-03-06T19:06:33.900Z,100006.81
2023-03-06T19:09:04.145Z,100007.25
2023-03-06T19:11:33.174Z,100005.13
2023-03-06T19:14:01.547Z,100001.44
2023-03-06T19:16:31.932Z,100002.56
2023-03-06T19:19:00.310Z,100010.91
2023-03-06T19:21:32.604Z,100003.56
2023-03-06T19:24:01.110Z,99998.50
2023-03-06T19:26:30.674Z,99989.91
2023-03-06T19:28:58.555Z,99988.28
2023-03-06T19:31:28.850Z,99985.13
2023-03-06T19:33:58.349Z,99984.03
2023-03-06T19:36:33.314Z,99983.94
2023-03-06T19:39:04.043Z,99985.13
2023-03-06T19:41:37.889Z,99979.41
2023-03-06T19:44:06.936Z,99966.34
2023-03-06T19:46:36.414Z,99958.84
2023-03-06T19:49:11.877Z,99956.44
2023-03-06T19:51:40.184Z,99949.59
2023-03-06T19:54:08.439Z,99947.41
2023-03-06T19:56:37.948Z,99943.38
2023-03-06T19:59:05.918Z,99940.66
2023-03-06T20:01:34.491Z,99932.91
2023-03-06T20:04:03.348Z,99932.28
2023-03-06T20:06:35.823Z,99930.31
2023-03-06T20:09:07.024Z,99925.88
2023-03-06T20:11:35.140Z,99916.41
2023-03-06T20:14:07.102Z,99910.25
2023-03-06T20:16:36.191Z,99909.72
2023-03-06T20:19:05.745Z,99899.09
2023-03-06T20:21:37.725Z,99900.00
2023-03-06T20:24:07.157Z,99888.66
2023-03-06T20:26:36.855Z,99887.66
2023-03-06T20:29:06.884Z,99885.75
2023-03-06T20:31:35.858Z,99882.56
2023-03-06T20:34:05.014Z,99890.91
2023-03-06T20:36:36.216Z,99870.84
2023-03-06T20:39:05.974Z,99863.63
2023-03-06T20:41:34.552Z,99865.53
2023-03-06T20:44:04.184Z,99863.06
2023-03-06T20:46:34.547Z,99852.16
2023-03-06T20:49:02.559Z,99856.38
2023-03-06T20:51:32.281Z,99835.53
2023-03-06T20:54:02.518Z,99835.94
2023-03-06T20:56:32.746Z,99833.81
2023-03-06T20:59:01.032Z,99827.91
2023-03-06T21:01:31.283Z,99825.75
2023-03-06T21:04:01.157Z,99819.41
2023-03-06T21:06:33.619Z,99817.75
2023-03-06T21:09:02.529Z,99810.69
2023-03-06T21:11:31.196Z,99806.34
2023-03-06T21:14:00.863Z,99791.97
2023-03-06T21:16:30.190Z,99790.41
2023-03-06T21:19:01.260Z,99791.44
2023-03-06T21:21:31.697Z,99787.75
2023-03-06T21:24:00.501Z,99775.69
2023-03-06T21:26:34.211Z,99775.53
2023-03-06T21:29:03.549Z,99772.56
2023-03-06T21:31:33.645Z,99767.97
2023-03-06T21:34:05.209Z,99756.94
2023-03-06T21:36:33.883Z,99758.81
2023-03-06T21:39:02.050Z,99763.31
2023-03-06T21:41:32.387Z,99743.75
2023-03-06T21:44:02.441Z,99742.97
2023-03-06T21:46:31.892Z,99742.28
2023-03-06T21:49:00.353Z,99730.13
2023-03-06T21:51:30.124Z,99731.22
2023-03-06T21:53:59.153Z,99718.56
2023-03-06T21:56:29.078Z,99714.56
2023-03-06T21:58:58.425Z,99705.34
2023-03-06T22:01:29.741Z,99697.19
2023-03-06T22:04:00.315Z,99695.66
2023-03-06T22:06:31.492Z,99692.75
2023-03-06T22:09:01.607Z,99696.13
2023-03-06T22:11:31.678Z,99679.31
2023-03-06T22:14:00.186Z,99685.09
2023-03-06T22:16:28.794Z,99681.34
2023-03-06T22:18:56.810Z,99679.19
2023-03-06T22:21:25.360Z,99667.81
2023-03-06T22:23:57.494Z,99656.72
2023-03-06T22:26:26.234Z,99653.72
2023-03-06T22:28:54.235Z,99648.19
2023-03-06T22:31:25.150Z,99643.16
2023-03-06T22:33:53.930Z,99630.56
2023-03-06T22:36:22.572Z,99617.72
2023-03-06T22:38:54.732Z,99623.56
2023-03-06T22:41:26.026Z,99624.09
2023-03-06T22:43:56.085Z,99614.16
2023-03-06T22:46:25.137Z,99603.50
2023-03-06T22:48:53.386Z,99595.31
2023-03-06T22:51:22.978Z,99592.25
2023-03-06T22:53:56.780Z,99583.81
2023-03-06T22:56:30.415Z,99578.34
2023-03-06T22:58:59.497Z,99572.47
2023-03-06T23:01:28.922Z,99569.34
2023-03-06T23:03:59.202Z,99564.84
2023-03-06T23:06:29.843Z,99565.75
2023-03-06T23:08:59.947Z,99557.50
2023-03-06T23:11:31.545Z,99538.53
2023-03-06T23:14:02.452Z,99534.03
2023-03-06T23:16:30.301Z,99527.28
2023-03-06T23:18:58.267Z,99526.88
2023-03-06T23:21:26.463Z,99516.03
2023-03-06T23:23:55.713Z,99510.34
2023-03-06T23:26:26.445Z,99499.19
2023-03-06T23:28:56.927Z,99493.09
2023-03-06T23:31:28.757Z,99496.50
2023-03-06T23:33:58.824Z,99484.16
2023-03-06T23:36:30.568Z,99475.41
2023-03-06T23:38:58.709Z,99469.84
2023-03-06T23:41:27.305Z,99463.56
2023-03-06T23:43:57.453Z,99465.09
2023-03-06T23:46:25.424Z,99453.78
2023-03-06T23:48:53.662Z,99450.59
2023-03-06T23:51:23.710Z,99445.25
2023-03-06T23:53:56.322Z,99426.47
2023-03-06T23:56:27.022Z,99433.88
2023-03-06T23:58:57.325Z,99432.28
